Time;durP1;ratioP1;P1;durP2;ratioP2;P2;SDS_P1;SDS_P2;PMS_P1;PMS_P2;Temp;Humidity;BMP_temperature;BMP_pressure;BME280_temperature;BME280_humidity;BME280_pressure;Samples;Min_cycle;Max_cycle;Signal;HPM_P1;HPM_P2
2023/11/21 00:00:20;;;;;;;45.85;18.55;;;8.80;99.90;;;;;;4994906;28;20404;-72
2023/11/21 00:02:46;;;;;;;47.03;19.03;;;8.80;99.90;;;;;;4994248;28;20043;-72
2023/11/21 00:05:16;;;;;;;47.92;18.80;;;8.80;99.90;;;;;;4975127;28;20131;-72
2023/11/21 00:07:42;;;;;;;40.63;17.88;;;8.70;99.90;;;;;;4978111;28;20038;-71
2023/11/21 00:10:10;;;;;;;47.00;18.63;;;8.70;99.90;;;;;;4996088;28;20046;-72
2023/11/21 00:12:35;;;;;;;47.90;17.85;;;8.70;99.90;;;;;;4984042;28;20530;-72
2023/11/21 00:15:01;;;;;;;45.83;18.48;;;8.70;99.90;;;;;;4976154;28;20039;-72
2023/11/21 00:17:27;;;;;;;49.70;18.60;;;8.80;99.90;;;;;;4961177;28;20034;-72
2023/11/21 00:19:53;;;;;;;44.60;18.00;;;8.80;99.90;;;;;;4981772;28;20031;-72
2023/11/21 00:22:19;;;;;;;46.75;19.15;;;8.80;99.90;;;;;;4956410;28;20042;-73
2023/11/21 00:24:45;;;;;;;46.95;18.75;;;8.80;99.90;;;;;;4973687;28;20095;-72
2023/11/21 00:27:11;;;;;;;46.50;19.15;;;8.80;99.90;;;;;;4992752;28;20115;-72
2023/11/21 00:29:36;;;;;;;46.22;18.88;;;8.80;99.90;;;;;;4976327;28;20455;-73
2023/11/21 00:32:02;;;;;;;48.50;18.23;;;8.80;99.90;;;;;;4996662;28;20109;-73
2023/11/21 00:34:28;;;;;;;53.95;19.52;;;8.80;99.90;;;;;;4999214;28;20529;-72
2023/11/21 00:36:54;;;;;;;49.53;19.20;;;8.90;99.90;;;;;;4993721;28;20061;-72
2023/11/21 00:39:19;;;;;;;48.25;18.52;;;8.80;99.90;;;;;;4998147;28;20034;-72
2023/11/21 00:41:45;;;;;;;44.78;18.77;;;8.90;99.90;;;;;;4977285;28;20042;-72
2023/11/21 00:44:11;;;;;;;47.35;19.30;;;8.90;99.90;;;;;;4975593;28;20046;-72
2023/11/21 00:46:36;;;;;;;50.10;19.15;;;8.90;99.90;;;;;;4994097;28;20038;-72
2023/11/21 00:49:04;;;;;;;49.22;18.35;;;8.90;99.90;;;;;;4976021;28;20072;-72
2023/11/21 00:51:30;;;;;;;47.58;19.92;;;8.90;99.90;;;;;;4993070;28;20038;-72
2023/11/21 00:53:59;;;;;;;46.58;18.73;;;8.90;99.90;;;;;;4976914;28;20503;-73
2023/11/21 00:56:25;;;;;;;54.58;19.02;;;9.00;99.90;;;;;;4976170;28;20518;-72
2023/11/21 00:58:52;;;;;;;48.88;19.42;;;8.90;99.90;;;;;;4992913;28;20074;-72
2023/11/21 01:01:18;;;;;;;54.60;18.88;;;8.90;99.90;;;;;;4972605;28;20042;-72
2023/11/21 01:03:46;;;;;;;54.38;19.02;;;8.90;99.90;;;;;;4990025;28;20038;-72
2023/11/21 01:06:11;;;;;;;54.58;18.38;;;8.90;99.90;;;;;;4991974;28;20042;-73
2023/11/21 01:08:37;;;;;;;50.65;18.50;;;8.90;99.90;;;;;;4992725;28;20045;-73
2023/11/21 01:11:04;;;;;;;48.60;19.63;;;8.90;99.90;;;;;;4959661;28;20093;-72
2023/11/21 01:13:30;;;;;;;51.08;19.15;;;8.90;99.90;;;;;;4989072;28;20035;-72
2023/11/21 01:15:55;;;;;;;51.15;19.85;;;8.90;99.90;;;;;;4974805;28;20049;-73
2023/11/21 01:18:21;;;;;;;58.20;19.73;;;9.00;99.90;;;;;;4992827;28;20034;-72
2023/11/21 01:20:47;;;;;;;49.97;18.92;;;8.90;99.90;;;;;;4975019;28;20077;-72
2023/11/21 01:23:15;;;;;;;50.05;19.02;;;8.90;99.90;;;;;;4991827;28;20066;-71
2023/11/21 01:25:41;;;;;;;52.70;18.63;;;9.00;99.90;;;;;;4980595;28;20038;-72
2023/11/21 01:28:07;;;;;;;54.45;18.98;;;8.90;99.90;;;;;;4966155;28;20533;-72
2023/11/21 01:30:35;;;;;;;48.33;19.23;;;8.90;99.90;;;;;;4959847;28;20042;-72
2023/11/21 01:33:01;;;;;;;47.03;18.65;;;9.00;99.90;;;;;;4976148;28;20100;-72
2023/11/21 01:35:26;;;;;;;51.97;18.73;;;9.00;99.90;;;;;;4973893;28;20046;-72
2023/11/21 01:37:52;;;;;;;52.80;18.20;;;9.00;99.90;;;;;;4992356;28;20125;-72
2023/11/21 01:40:18;;;;;;;54.17;18.52;;;9.00;99.90;;;;;;4976750;28;20042;-72
2023/11/21 01:42:45;;;;;;;46.92;18.10;;;9.00;99.90;;;;;;4974203;28;20042;-72
2023/11/21 01:45:12;;;;;;;49.17;18.42;;;9.00;99.90;;;;;;4992300;28;20046;-73
2023/11/21 01:47:39;;;;;;;44.65;17.33;;;9.00;99.90;;;;;;4995822;28;20038;-72
2023/11/21 01:50:07;;;;;;;54.47;18.55;;;9.00;99.90;;;;;;4980845;28;20042;-72
2023/11/21 01:52:35;;;;;;;45.28;18.15;;;9.00;99.90;;;;;;4991645;28;20117;-72
2023/11/21 01:55:01;;;;;;;49.55;17.80;;;9.00;99.90;;;;;;4992459;28;20050;-72
2023/11/21 01:57:26;;;;;;;47.58;18.02;;;9.00;99.90;;;;;;4974140;28;20038;-72
2023/11/21 01:59:54;;;;;;;46.60;17.85;;;9.10;99.90;;;;;;4991588;28;20538;-72
2023/11/21 02:02:20;;;;;;;47.83;17.80;;;9.00;99.90;;;;;;4975457;28;20499;-72
2023/11/21 02:04:46;;;;;;;54.15;17.58;;;9.00;99.90;;;;;;4974638;28;20092;-72
2023/11/21 02:07:11;;;;;;;44.63;17.42;;;9.10;99.90;;;;;;4974654;28;20078;-72
2023/11/21 02:09:42;;;;;;;46.70;18.35;;;9.00;99.90;;;;;;4988507;28;20511;-72
2023/11/21 02:12:10;;;;;;;43.95;16.98;;;9.10;99.90;;;;;;4975249;28;20129;-72
2023/11/21 02:14:36;;;;;;;47.53;18.08;;;9.00;99.90;;;;;;4990605;28;20038;-72
2023/11/21 02:17:03;;;;;;;44.58;17.90;;;9.10;99.90;;;;;;4975117;28;20089;-72
2023/11/21 02:19:29;;;;;;;51.92;17.95;;;9.10;99.90;;;;;;4993715;28;20047;-72
2023/11/21 02:22:03;;;;;;;52.97;17.92;;;9.10;99.90;;;;;;4991668;28;20038;-72
2023/11/21 02:24:29;;;;;;;48.42;17.33;;;9.10;99.90;;;;;;4992669;28;20621;-72
2023/11/21 02:26:54;;;;;;;42.90;17.73;;;9.10;99.90;;;;;;4973635;28;20050;-72
2023/11/21 02:29:22;;;;;;;49.75;17.30;;;9.10;99.90;;;;;;4992882;28;20455;-72
2023/11/21 02:31:49;;;;;;;47.25;17.70;;;9.10;99.90;;;;;;4974414;28;20125;-73
2023/11/21 02:34:16;;;;;;;44.55;17.70;;;9.10;99.90;;;;;;5000040;28;20042;-72
2023/11/21 02:36:42;;;;;;;46.33;17.10;;;9.10;99.90;;;;;;4974024;28;20092;-72
2023/11/21 02:39:09;;;;;;;54.72;20.15;;;9.10;99.90;;;;;;4994659;28;20708;-72
2023/11/21 02:41:34;;;;;;;52.67;19.20;;;9.10;99.90;;;;;;4958207;28;20034;-72
2023/11/21 02:44:00;;;;;;;47.55;18.25;;;9.20;99.90;;;;;;4992637;28;20034;-72
2023/11/21 02:46:26;;;;;;;51.65;19.08;;;9.40;99.90;;;;;;4955355;28;20546;-72
2023/11/21 02:48:54;;;;;;;52.40;19.20;;;9.10;99.90;;;;;;4972069;28;20036;-71
2023/11/21 02:51:20;;;;;;;45.97;19.00;;;9.10;99.90;;;;;;4973548;28;20487;-72
2023/11/21 02:53:48;;;;;;;47.35;19.55;;;9.10;99.90;;;;;;4973358;28;20094;-72
2023/11/21 02:56:13;;;;;;;47.25;18.63;;;9.10;99.90;;;;;;4991424;28;20034;-72
2023/11/21 02:58:43;;;;;;;56.58;19.33;;;9.10;99.90;;;;;;4974026;28;20038;-72
2023/11/21 03:01:10;;;;;;;51.88;19.25;;;9.10;99.90;;;;;;4957737;28;20044;-72
2023/11/21 03:03:39;;;;;;;44.78;18.73;;;9.10;99.90;;;;;;4975187;28;20745;-73
2023/11/21 03:06:06;;;;;;;47.00;19.15;;;9.10;99.90;;;;;;4973471;28;20046;-72
2023/11/21 03:08:32;;;;;;;49.78;19.35;;;9.10;99.90;;;;;;4991699;28;20504;-72
2023/11/21 03:10:58;;;;;;;49.50;18.55;;;9.10;99.90;;;;;;4991796;28;20042;-72
2023/11/21 03:13:24;;;;;;;51.60;20.08;;;9.10;99.90;;;;;;4973991;28;20046;-72
2023/11/21 03:15:55;;;;;;;51.08;20.38;;;9.10;99.90;;;;;;4991583;28;20043;-71
2023/11/21 03:18:24;;;;;;;49.33;19.27;;;9.10;99.90;;;;;;4980880;28;20509;-72
2023/11/21 03:20:52;;;;;;;50.05;19.67;;;9.10;99.90;;;;;;4992436;28;20042;-72
2023/11/21 03:23:17;;;;;;;53.92;19.85;;;9.10;99.90;;;;;;4995160;28;20035;-72
2023/11/21 03:25:43;;;;;;;48.30;19.60;;;9.10;99.90;;;;;;4978093;28;20045;-72
2023/11/21 03:28:09;;;;;;;49.83;20.20;;;9.10;99.90;;;;;;4961101;28;20601;-73
2023/11/21 03:30:34;;;;;;;54.55;20.50;;;9.10;99.90;;;;;;4961833;28;20042;-73
2023/11/21 03:33:00;;;;;;;47.17;18.83;;;9.10;99.90;;;;;;4977770;28;20045;-72
2023/11/21 03:35:26;;;;;;;52.97;20.80;;;9.10;99.90;;;;;;4993820;28;20038;-72
2023/11/21 03:37:52;;;;;;;46.25;19.13;;;9.20;99.90;;;;;;4960809;28;20045;-72
2023/11/21 03:40:18;;;;;;;48.42;20.08;;;9.20;99.90;;;;;;4994119;28;20034;-72
2023/11/21 03:42:43;;;;;;;47.25;19.50;;;9.20;99.90;;;;;;5004929;22;20097;-74
2023/11/21 03:45:09;;;;;;;47.30;19.15;;;9.20;99.90;;;;;;4950032;28;20511;-73
2023/11/21 03:47:35;;;;;;;46.38;19.45;;;9.10;99.90;;;;;;4952551;28;20058;-73
2023/11/21 03:50:01;;;;;;;53.63;20.70;;;9.20;99.90;;;;;;4946232;28;20051;-73
2023/11/21 03:52:28;;;;;;;56.88;22.05;;;9.20;99.90;;;;;;4946324;28;20070;-73
2023/11/21 03:54:54;;;;;;;48.47;20.45;;;9.20;99.90;;;;;;4921349;29;20043;-73
2023/11/21 03:57:21;;;;;;;51.72;20.73;;;9.20;99.90;;;;;;4937811;29;20042;-73
2023/11/21 03:59:47;;;;;;;49.22;20.13;;;9.20;99.90;;;;;;4935518;29;20130;-73
2023/11/21 04:02:12;;;;;;;46.10;20.63;;;9.20;99.90;;;;;;4943284;28;20115;-73
2023/11/21 04:04:39;;;;;;;51.30;21.10;;;9.20;99.90;;;;;;4931099;29;20047;-74
2023/11/21 04:07:05;;;;;;;47.25;20.75;;;9.20;99.90;;;;;;4940401;28;20142;-74
2023/11/21 04:09:30;;;;;;;49.70;20.75;;;9.20;99.90;;;;;;4945481;28;20118;-73
2023/11/21 04:11:56;;;;;;;48.90;20.83;;;9.20;99.90;;;;;;4954838;28;20503;-74
2023/11/21 04:14:22;;;;;;;49.63;20.50;;;9.20;99.90;;;;;;4940051;28;20102;-73
2023/11/21 04:16:48;;;;;;;51.72;20.08;;;9.20;99.90;;;;;;4954238;28;20042;-73
2023/11/21 04:19:17;;;;;;;45.97;19.88;;;9.20;99.90;;;;;;4934783;29;20039;-73
2023/11/21 04:21:43;;;;;;;43.53;20.15;;;9.20;99.90;;;;;;4926338;29;20031;-75
2023/11/21 04:24:09;;;;;;;45.88;20.02;;;9.20;99.90;;;;;;4936941;29;20035;-74
2023/11/21 04:26:34;;;;;;;42.20;19.70;;;9.30;99.90;;;;;;4933447;28;20043;-74
2023/11/21 04:29:00;;;;;;;46.97;20.17;;;9.20;99.90;;;;;;4937588;29;20074;-73
2023/11/21 04:31:25;;;;;;;43.17;20.23;;;9.30;99.90;;;;;;4938988;29;20559;-73
2023/11/21 04:33:51;;;;;;;39.85;19.13;;;9.30;99.90;;;;;;4952761;28;20126;-74
2023/11/21 04:36:17;;;;;;;45.60;19.77;;;9.20;99.90;;;;;;4938872;29;20492;-73
2023/11/21 04:38:42;;;;;;;48.17;20.55;;;9.30;99.90;;;;;;4937123;29;20039;-74
2023/11/21 04:41:08;;;;;;;42.40;19.65;;;9.30;99.90;;;;;;4950085;28;20043;-74
2023/11/21 04:43:34;;;;;;;41.38;19.95;;;9.30;99.90;;;;;;4937114;29;20047;-74
2023/11/21 04:46:00;;;;;;;43.28;19.50;;;9.30;99.90;;;;;;4935780;29;20056;-74
2023/11/21 04:48:25;;;;;;;44.97;19.60;;;9.30;99.90;;;;;;4936065;29;20047;-74
2023/11/21 04:50:51;;;;;;;45.97;19.30;;;9.30;99.90;;;;;;4937118;29;21803;-75
2023/11/21 04:53:17;;;;;;;39.00;18.55;;;9.30;99.90;;;;;;4922700;28;20523;-73
2023/11/21 04:55:43;;;;;;;41.42;19.48;;;9.40;99.90;;;;;;4936680;29;20036;-73
2023/11/21 04:58:09;;;;;;;44.03;19.67;;;9.30;99.90;;;;;;4944247;28;20040;-73
2023/11/21 05:00:36;;;;;;;40.95;18.92;;;9.30;99.90;;;;;;4936754;29;20059;-73
2023/11/21 05:03:03;;;;;;;37.80;19.30;;;9.30;99.90;;;;;;4936408;29;20035;-74
2023/11/21 05:05:29;;;;;;;40.83;19.52;;;9.30;99.90;;;;;;4941093;28;20117;-73
2023/11/21 05:07:55;;;;;;;39.95;17.92;;;9.30;99.90;;;;;;4931573;29;20086;-74
2023/11/21 05:10:22;;;;;;;38.28;18.30;;;9.50;99.90;;;;;;4939030;28;20043;-74
2023/11/21 05:12:49;;;;;;;38.10;18.45;;;9.30;99.90;;;;;;4936641;29;20078;-74
2023/11/21 05:15:17;;;;;;;35.03;18.23;;;9.30;99.90;;;;;;4953669;28;20047;-74
2023/11/21 05:17:48;;;;;;;37.45;18.65;;;9.40;99.90;;;;;;4929131;29;20055;-74
2023/11/21 05:20:17;;;;;;;35.92;17.85;;;9.40;99.90;;;;;;4949952;28;20382;-74
2023/11/21 05:22:43;;;;;;;36.72;17.52;;;9.40;99.90;;;;;;4953409;28;20105;-74
2023/11/21 05:25:09;;;;;;;34.20;16.75;;;9.40;99.90;;;;;;4932892;29;20497;-73
2023/11/21 05:27:35;;;;;;;33.33;17.05;;;9.40;99.90;;;;;;4935416;29;20398;-74
2023/11/21 05:30:05;;;;;;;35.38;18.02;;;9.40;99.90;;;;;;4937313;28;20043;-73
2023/11/21 05:32:32;;;;;;;35.63;17.30;;;9.40;99.90;;;;;;4951549;28;20089;-74
2023/11/21 05:34:58;;;;;;;38.55;17.52;;;9.40;99.90;;;;;;4953142;28;20058;-73
2023/11/21 05:37:24;;;;;;;34.13;17.23;;;9.40;99.90;;;;;;4931421;28;20110;-73
2023/11/21 05:39:49;;;;;;;36.00;18.10;;;9.40;99.90;;;;;;4952927;28;20110;-73
2023/11/21 05:42:15;;;;;;;38.92;17.85;;;9.30;99.90;;;;;;4956152;28;20067;-74
2023/11/21 05:44:45;;;;;;;34.45;17.00;;;9.40;99.90;;;;;;4936443;28;20491;-75
2023/11/21 05:47:13;;;;;;;35.47;17.08;;;9.40;99.90;;;;;;4949069;28;20039;-75
2023/11/21 05:49:39;;;;;;;33.28;15.93;;;9.40;99.90;;;;;;4934911;28;20047;-75
2023/11/21 05:52:05;;;;;;;34.15;17.05;;;9.40;99.90;;;;;;4955686;28;20037;-74
2023/11/21 05:54:31;;;;;;;36.60;16.45;;;9.40;99.90;;;;;;4948402;28;20158;-74
2023/11/21 05:56:57;;;;;;;35.78;16.23;;;9.40;99.90;;;;;;4939718;28;20122;-74
2023/11/21 05:59:23;;;;;;;31.20;16.48;;;9.40;99.90;;;;;;4953041;28;20054;-74
2023/11/21 06:01:49;;;;;;;30.65;15.70;;;9.40;99.90;;;;;;4953601;28;20035;-74
2023/11/21 06:04:14;;;;;;;33.08;16.50;;;9.40;99.90;;;;;;4952830;28;20071;-74
2023/11/21 06:06:40;;;;;;;31.67;16.30;;;9.40;99.90;;;;;;4938725;28;20510;-74
2023/11/21 06:09:08;;;;;;;31.55;16.00;;;9.40;99.90;;;;;;4934357;29;20454;-73
2023/11/21 06:11:34;;;;;;;30.40;14.73;;;9.40;99.90;;;;;;4929729;28;20035;-76
2023/11/21 06:13:59;;;;;;;30.80;15.80;;;9.40;99.90;;;;;;4950952;28;20046;-75
2023/11/21 06:16:25;;;;;;;29.83;15.40;;;9.40;99.90;;;;;;4929557;29;20134;-74
2023/11/21 06:18:51;;;;;;;27.85;15.00;;;9.40;99.90;;;;;;4951041;28;20070;-75
2023/11/21 06:21:17;;;;;;;27.23;15.02;;;9.40;99.90;;;;;;4952667;28;20035;-73
2023/11/21 06:23:43;;;;;;;30.83;16.13;;;9.40;99.90;;;;;;4928502;28;20048;-74
2023/11/21 06:26:09;;;;;;;30.92;15.93;;;9.40;99.90;;;;;;4933019;29;20055;-70
2023/11/21 06:28:36;;;;;;;25.77;15.00;;;9.40;99.90;;;;;;4928634;28;20090;-76
2023/11/21 06:31:04;;;;;;;28.38;15.25;;;9.40;99.90;;;;;;4947750;28;20122;-74
2023/11/21 06:33:31;;;;;;;28.38;14.68;;;9.40;99.90;;;;;;4952802;28;20085;-75
2023/11/21 06:35:57;;;;;;;28.00;15.02;;;9.40;99.90;;;;;;4918868;28;20098;-74
2023/11/21 06:38:22;;;;;;;27.73;14.93;;;9.40;99.90;;;;;;4935493;29;20485;-75
2023/11/21 06:40:48;;;;;;;28.50;15.38;;;9.40;99.90;;;;;;4934989;28;20067;-74
2023/11/21 06:43:14;;;;;;;26.92;14.27;;;9.40;99.90;;;;;;4933871;29;20098;-74
2023/11/21 06:45:39;;;;;;;26.50;14.68;;;9.40;99.90;;;;;;4934265;29;20485;-76
2023/11/21 06:48:05;;;;;;;28.92;14.88;;;9.40;99.90;;;;;;4951398;28;20035;-74
2023/11/21 06:50:31;;;;;;;31.23;14.75;;;9.40;99.90;;;;;;4952838;28;20043;-75
2023/11/21 06:52:56;;;;;;;28.70;15.02;;;9.40;99.90;;;;;;4935723;28;20139;-74
2023/11/21 06:55:22;;;;;;;30.20;15.50;;;9.40;99.90;;;;;;4946893;29;20411;-74
2023/11/21 06:57:48;;;;;;;30.65;16.08;;;9.50;99.90;;;;;;4936302;28;20039;-74
2023/11/21 07:00:17;;;;;;;32.03;16.40;;;9.40;99.90;;;;;;4954099;28;20043;-74
2023/11/21 07:02:43;;;;;;;27.23;15.52;;;9.40;99.90;;;;;;4936603;29;20047;-74
2023/11/21 07:05:08;;;;;;;32.33;16.58;;;9.40;99.90;;;;;;4955090;28;20555;-74
2023/11/21 07:07:35;;;;;;;29.75;15.30;;;9.40;99.90;;;;;;4947648;29;20047;-74
2023/11/21 07:10:03;;;;;;;31.05;16.27;;;9.50;99.90;;;;;;4953783;28;20039;-74
2023/11/21 07:12:30;;;;;;;33.58;16.60;;;9.50;99.90;;;;;;4938749;29;20491;-74
2023/11/21 07:14:55;;;;;;;37.47;17.90;;;9.50;99.90;;;;;;4955845;28;20420;-75
2023/11/21 07:17:23;;;;;;;32.65;16.98;;;9.50;99.90;;;;;;4955538;28;20036;-75
2023/11/21 07:19:49;;;;;;;32.78;16.65;;;9.50;99.90;;;;;;4936758;29;20051;-74
2023/11/21 07:22:21;;;;;;;33.78;17.77;;;9.50;99.90;;;;;;4925633;29;20052;-74
2023/11/21 07:24:49;;;;;;;33.65;17.95;;;9.50;99.90;;;;;;4922715;29;20039;-74
2023/11/21 07:27:15;;;;;;;31.67;17.23;;;9.50;99.90;;;;;;4938401;28;20054;-73
2023/11/21 07:29:41;;;;;;;34.40;18.00;;;9.50;99.90;;;;;;4938616;29;20559;-75
2023/11/21 07:32:09;;;;;;;37.25;18.15;;;9.50;99.90;;;;;;4938699;28;20412;-75
2023/11/21 07:34:35;;;;;;;34.22;17.20;;;9.50;99.90;;;;;;4954355;28;20047;-75
2023/11/21 07:37:00;;;;;;;33.05;16.92;;;9.50;99.90;;;;;;4936761;29;20039;-75
2023/11/21 07:39:26;;;;;;;34.05;16.77;;;9.50;99.90;;;;;;4938705;29;20039;-77
2023/11/21 07:41:52;;;;;;;29.00;16.33;;;9.50;99.90;;;;;;4934166;29;20039;-75
2023/11/21 07:44:17;;;;;;;31.65;16.77;;;9.50;99.90;;;;;;4936466;28;20036;-74
2023/11/21 07:46:44;;;;;;;30.25;16.63;;;9.50;99.90;;;;;;4955516;28;21719;-73
2023/11/21 07:49:24;;;;;;;31.42;16.30;;;9.50;99.90;;;;;;5099259;27;20404;-67
2023/11/21 07:51:50;;;;;;;27.63;16.10;;;9.50;99.90;;;;;;5071555;28;20372;-68
2023/11/21 07:54:16;;;;;;;27.08;15.32;;;9.60;99.90;;;;;;5069248;28;20131;-67
2023/11/21 07:56:42;;;;;;;27.98;15.07;;;9.60;99.90;;;;;;5086537;28;20036;-67
2023/11/21 07:59:07;;;;;;;25.80;13.80;;;9.60;99.90;;;;;;5087492;28;20036;-67
2023/11/21 08:01:33;;;;;;;26.38;14.93;;;9.60;99.90;;;;;;5068732;28;20102;-67
2023/11/21 08:04:03;;;;;;;28.65;15.57;;;9.60;99.90;;;;;;5087048;28;20115;-67
2023/11/21 08:06:29;;;;;;;30.35;15.15;;;9.60;99.90;;;;;;5086788;28;20701;-67
2023/11/21 08:08:55;;;;;;;25.83;14.73;;;9.60;99.90;;;;;;5062336;28;20045;-67
2023/11/21 08:11:21;;;;;;;31.20;14.50;;;9.60;99.90;;;;;;5086284;28;20039;-67
2023/11/21 08:13:47;;;;;;;29.70;14.32;;;9.60;99.90;;;;;;5083953;28;20406;-67
2023/11/21 08:16:12;;;;;;;26.25;14.77;;;9.70;99.90;;;;;;5064061;28;20044;-67
2023/11/21 08:18:40;;;;;;;31.42;15.13;;;9.70;99.90;;;;;;5083974;28;20052;-67
2023/11/21 08:21:05;;;;;;;31.90;15.57;;;9.70;99.90;;;;;;5072421;28;20177;-67
2023/11/21 08:23:31;;;;;;;28.38;13.93;;;9.70;99.90;;;;;;5060926;28;20124;-67
2023/11/21 08:25:57;;;;;;;28.08;13.07;;;9.70;99.90;;;;;;5068443;28;20044;-67
2023/11/21 08:28:25;;;;;;;29.35;13.63;;;9.70;99.90;;;;;;5092089;28;20047;-67
2023/11/21 08:30:54;;;;;;;27.00;14.23;;;9.70;99.90;;;;;;5080945;28;20055;-67
2023/11/21 08:33:19;;;;;;;27.85;13.30;;;9.80;99.90;;;;;;5085884;28;20028;-67
2023/11/21 08:35:45;;;;;;;25.42;12.90;;;9.80;99.90;;;;;;5090596;28;20036;-67
2023/11/21 08:38:12;;;;;;;27.50;13.07;;;9.80;99.90;;;;;;5087221;28;20484;-67
2023/11/21 08:40:38;;;;;;;29.88;13.40;;;9.80;99.90;;;;;;5080627;28;20403;-67
2023/11/21 08:43:04;;;;;;;27.30;14.00;;;9.80;99.90;;;;;;5076042;28;20036;-67
2023/11/21 08:45:31;;;;;;;25.08;12.60;;;9.80;99.90;;;;;;5070384;28;20369;-67
2023/11/21 08:47:56;;;;;;;34.97;14.20;;;9.80;99.90;;;;;;5060107;28;20130;-67
2023/11/21 08:50:22;;;;;;;25.63;13.68;;;9.80;99.90;;;;;;5085344;28;20072;-67
2023/11/21 08:52:48;;;;;;;29.02;14.32;;;9.80;99.90;;;;;;5086169;28;20047;-67
2023/11/21 08:55:14;;;;;;;29.45;14.65;;;9.80;99.90;;;;;;5085737;28;20098;-67
2023/11/21 08:57:41;;;;;;;28.30;13.25;;;9.80;99.90;;;;;;5083289;28;20037;-67
2023/11/21 09:00:16;;;;;;;27.48;13.63;;;9.80;99.90;;;;;;5079249;28;20036;-67
2023/11/21 09:02:43;;;;;;;25.80;12.90;;;9.80;99.90;;;;;;5076490;28;20044;-67
2023/11/21 09:05:13;;;;;;;27.45;13.60;;;9.80;99.90;;;;;;5044534;28;20028;-67
2023/11/21 09:07:41;;;;;;;32.28;14.32;;;9.80;99.90;;;;;;5058003;28;20040;-67
2023/11/21 09:10:07;;;;;;;29.77;13.32;;;9.80;99.90;;;;;;5062400;28;20029;-67
2023/11/21 09:12:35;;;;;;;31.85;13.85;;;9.80;99.90;;;;;;5060440;28;20037;-67
2023/11/21 09:15:04;;;;;;;30.23;13.75;;;9.80;99.90;;;;;;5048952;28;20040;-67
2023/11/21 09:17:30;;;;;;;26.60;12.50;;;9.80;99.90;;;;;;5065226;28;20040;-67
2023/11/21 09:19:56;;;;;;;29.17;13.40;;;9.80;99.90;;;;;;5067430;28;20055;-67
2023/11/21 09:22:24;;;;;;;25.67;12.43;;;9.80;99.90;;;;;;5054040;28;20048;-67
2023/11/21 09:24:50;;;;;;;26.80;12.88;;;9.80;99.90;;;;;;5047604;28;20453;-67
2023/11/21 09:27:17;;;;;;;25.80;12.68;;;9.80;99.90;;;;;;5072212;28;20036;-67
2023/11/21 09:29:43;;;;;;;26.50;12.30;;;9.80;99.90;;;;;;5062807;28;20040;-67
2023/11/21 09:32:11;;;;;;;24.77;12.02;;;9.80;99.90;;;;;;5069544;28;20084;-67
2023/11/21 09:34:38;;;;;;;27.10;11.32;;;9.90;99.90;;;;;;5064598;28;20376;-67
2023/11/21 09:37:06;;;;;;;25.90;11.57;;;9.90;99.90;;;;;;5066414;28;20086;-67
2023/11/21 09:39:32;;;;;;;25.80;11.32;;;9.90;99.90;;;;;;5047986;28;20039;-67
2023/11/21 09:42:23;;;;;;;24.92;11.13;;;9.90;99.90;;;;;;5046024;28;20049;-67
2023/11/21 09:45:01;;;;;;;24.73;11.60;;;9.90;99.90;;;;;;5065134;28;20032;-67
2023/11/21 09:47:27;;;;;;;23.10;10.82;;;9.90;99.90;;;;;;5050011;28;20033;-67
2023/11/21 09:49:56;;;;;;;26.73;11.23;;;9.90;99.90;;;;;;5067598;28;20491;-67
2023/11/21 09:52:25;;;;;;;27.00;11.45;;;9.90;99.90;;;;;;5065452;28;20048;-67
2023/11/21 09:54:57;;;;;;;23.88;11.15;;;9.90;99.90;;;;;;5057838;22;20047;-69
2023/11/21 09:57:23;;;;;;;;;;;9.90;99.90;;;;;;5066606;28;20507;-69
2023/11/21 09:59:58;;;;;;;28.30;11.57;;;9.80;99.90;;;;;;5057858;28;20045;-69
2023/11/21 10:02:30;;;;;;;32.00;12.15;;;9.80;99.90;;;;;;5065534;28;20769;-69
2023/11/21 10:04:56;;;;;;;31.77;12.75;;;9.80;99.90;;;;;;5083329;28;20048;-69
2023/11/21 10:07:23;;;;;;;31.80;13.80;;;9.80;99.90;;;;;;5083896;28;20059;-69
2023/11/21 10:09:52;;;;;;;34.38;14.85;;;9.80;99.90;;;;;;5068513;28;20166;-69
2023/11/21 10:12:21;;;;;;;37.65;15.10;;;9.80;99.90;;;;;;5067248;28;20104;-69
2023/11/21 10:14:49;;;;;;;36.17;15.80;;;9.80;99.90;;;;;;5080905;28;20040;-69
2023/11/21 10:17:18;;;;;;;40.72;16.45;;;9.70;99.90;;;;;;5080870;28;20617;-69
2023/11/21 10:19:47;;;;;;;34.42;15.70;;;9.70;99.90;;;;;;5064718;28;20047;-69
2023/11/21 10:22:14;;;;;;;34.03;15.70;;;9.70;99.90;;;;;;5077330;28;20059;-69
2023/11/21 10:24:40;;;;;;;33.13;15.38;;;9.70;99.90;;;;;;5058004;28;20040;-69
2023/11/21 10:27:06;;;;;;;35.03;16.02;;;9.70;99.90;;;;;;5066718;28;20033;-69
2023/11/21 10:29:35;;;;;;;33.40;16.80;;;9.70;99.90;;;;;;5083233;28;20506;-69
2023/11/21 10:32:02;;;;;;;33.78;16.00;;;9.70;99.90;;;;;;5068279;28;20037;-69
2023/11/21 10:34:28;;;;;;;30.10;15.73;;;9.70;99.90;;;;;;5083378;28;20044;-69
2023/11/21 10:36:56;;;;;;;33.75;15.90;;;9.70;99.90;;;;;;5063854;28;20464;-69
2023/11/21 10:39:23;;;;;;;29.20;15.82;;;9.70;99.90;;;;;;5067040;28;20402;-69
2023/11/21 10:41:49;;;;;;;30.98;16.40;;;9.70;99.90;;;;;;5065391;28;20060;-69
2023/11/21 10:44:20;;;;;;;32.75;15.90;;;9.70;99.90;;;;;;5068117;28;20097;-69
2023/11/21 10:46:50;;;;;;;34.83;17.05;;;9.70;99.90;;;;;;5078476;28;20067;-71
2023/11/21 10:49:20;;;;;;;36.08;17.35;;;9.70;99.90;;;;;;5073452;28;20438;-71
2023/11/21 10:51:48;;;;;;;32.53;16.83;;;9.70;99.90;;;;;;5078026;28;20514;-71
2023/11/21 10:54:17;;;;;;;33.67;18.27;;;9.70;99.90;;;;;;5074903;28;20150;-71
2023/11/21 10:56:44;;;;;;;36.15;18.52;;;9.70;99.90;;;;;;5077286;28;20466;-71
2023/11/21 10:59:16;;;;;;;36.33;18.23;;;9.70;99.90;;;;;;5079205;28;20111;-71
2023/11/21 11:01:45;;;;;;;33.40;18.63;;;9.70;99.90;;;;;;5084619;28;20075;-71
2023/11/21 11:04:16;;;;;;;36.53;18.38;;;9.70;99.90;;;;;;5087494;28;20490;-71
2023/11/21 11:07:09;;;;;;;31.73;17.83;;;9.70;99.90;;;;;;5087785;28;20132;-70
2023/11/21 11:09:35;;;;;;;35.13;18.55;;;9.70;99.90;;;;;;5048357;28;20585;-71
2023/11/21 11:12:04;;;;;;;34.95;18.25;;;9.70;99.90;;;;;;5062672;28;20040;-70
2023/11/21 11:14:32;;;;;;;32.97;18.58;;;9.70;99.90;;;;;;5063795;28;20731;-70
2023/11/21 11:16:59;;;;;;;30.20;17.10;;;9.70;99.90;;;;;;5080809;28;20115;-70
2023/11/21 11:19:25;;;;;;;32.70;18.55;;;9.70;99.90;;;;;;5083486;28;20044;-70
2023/11/21 11:22:25;;;;;;;32.67;18.33;;;9.70;99.90;;;;;;5072896;28;20051;-70
2023/11/21 11:25:26;;;;;;;31.25;17.80;;;9.70;99.90;;;;;;5053681;28;20136;-71
2023/11/21 11:27:54;;;;;;;32.00;17.73;;;9.70;99.90;;;;;;5076243;28;20047;-70
2023/11/21 11:31:03;;;;;;;33.50;17.85;;;9.70;99.90;;;;;;5063424;28;20495;-70
2023/11/21 11:33:43;;;;;;;33.78;18.58;;;9.60;99.90;;;;;;5080396;28;20049;-70
2023/11/21 11:36:41;;;;;;;41.05;18.92;;;9.60;99.90;;;;;;5069724;28;20550;-70
2023/11/21 11:39:29;;;;;;;33.15;17.92;;;9.60;99.90;;;;;;5062026;28;20056;-70
2023/11/21 11:41:58;;;;;;;35.72;17.90;;;9.60;99.90;;;;;;5077884;28;20089;-70
2023/11/21 11:44:51;;;;;;;30.60;17.33;;;9.60;99.90;;;;;;5061472;28;20048;-70
2023/11/21 11:47:37;;;;;;;;;;;9.60;99.90;;;;;;5073793;28;20449;-71
2023/11/21 11:50:08;;;;;;;29.73;15.57;;;9.60;99.90;;;;;;5076584;28;20034;-71
2023/11/21 11:52:39;;;;;;;29.52;16.30;;;9.60;99.90;;;;;;5083818;28;20047;-70
2023/11/21 11:55:06;;;;;;;27.38;15.90;;;9.60;99.90;;;;;;5061562;28;20403;-70
2023/11/21 11:57:34;;;;;;;27.58;14.80;;;9.60;99.90;;;;;;5071512;28;20040;-70
2023/11/21 12:00:10;;;;;;;26.13;15.70;;;9.60;99.90;;;;;;5066051;28;20036;-70
2023/11/21 12:02:37;;;;;;;25.17;14.95;;;9.50;99.90;;;;;;5061709;28;20040;-70
2023/11/21 12:05:09;;;;;;;28.38;17.35;;;9.50;99.90;;;;;;5077409;28;20051;-70
2023/11/21 12:07:48;;;;;;;27.95;15.73;;;9.50;99.90;;;;;;5085383;28;20565;-70
2023/11/21 12:10:19;;;;;;;24.85;16.88;;;9.50;99.90;;;;;;5087148;28;20105;-70
2023/11/21 12:12:52;;;;;;;29.63;20.23;;;9.50;99.90;;;;;;5082280;28;20032;-70
2023/11/21 12:15:19;;;;;;;22.17;14.15;;;9.50;99.90;;;;;;5076780;28;20032;-70
2023/11/21 12:17:46;;;;;;;21.33;14.48;;;9.50;99.90;;;;;;5050121;28;20056;-70
2023/11/21 12:20:17;;;;;;;22.25;12.45;;;9.60;99.90;;;;;;5077340;28;20421;-70
2023/11/21 12:22:54;;;;;;;22.70;15.73;;;9.60;99.90;;;;;;5079435;28;20070;-71
2023/11/21 12:25:21;;;;;;;18.92;12.82;;;9.60;99.90;;;;;;5065406;28;20033;-71
2023/11/21 12:27:52;;;;;;;20.35;12.10;;;9.60;99.90;;;;;;5066673;28;20056;-70
2023/11/21 12:30:21;;;;;;;17.38;12.00;;;9.60;99.90;;;;;;5077415;28;20072;-70
2023/11/21 12:32:58;;;;;;;17.55;11.00;;;9.50;99.90;;;;;;5084475;28;20032;-70
2023/11/21 12:35:28;;;;;;;16.23;10.85;;;9.50;99.90;;;;;;5087582;28;20123;-71
2023/11/21 12:37:57;;;;;;;17.38;10.32;;;9.50;99.90;;;;;;5083598;28;20410;-71
2023/11/21 12:40:23;;;;;;;17.13;10.30;;;9.50;99.90;;;;;;5079815;28;20523;-71